台北 の空港の天気 - METARとTAF

台湾桃園国際空港 ( RCTP / TPE ) - 中華民国(台湾) 台北市
飛行場実況気象(Metar)
観測時間07/21 06:00 CST (07/20 22:00 UTC)
風向・風速西南西 2m/s
視程10km以上
天気現象
少しの雲 雲底高度 610m
全天の8割程度の雲 雲底高度 5490m
気温28℃
湿度84%
気圧1010hPa
METARRCTP 202200Z 24003KT 9999 FEW020 BKN180 28/25 Q1010 NOSIG RMK A2983
過去の天気等 Google飛行場航空写真 Wunderground天気予報

過去48時間のMETAR

飛行場予報(TAF)
発表時間: 7/21 01:00 CST (7/20 17:00 UTC)
予報対象時間: 21日2時 CST ~ 22日8時 CST
風向・風速南 3m/s
視程10km以上
少しの雲 雲底高度 610m
21日8時 CST ~ 21日10時 CST に徐々に
風向・風速北北西 3m/s
21日14時 CST ~ 21日18時 CST に一時的に
少しの雲 雲底高度 370m
少しの塔状積雲 雲底高度 460m
全天の4割程度の雲 雲底高度 610m
全天の8割程度の雲 雲底高度 980m
21日18時 CST ~ 21日20時 CST に徐々に
風向・風速南南西 3m/s
TAF RCTP 201700Z 2018/2124 17005KT 9999 FEW020
BECMG 2100/2102 33005KT
TEMPO 2106/2110 FEW012 FEW015TCU SCT020 BKN032
BECMG 2110/2112 21005KT